• Join FlightAware (Why Join?)
  • Login
  • US Flag 
05:03AM EDT


 

Airport Tracker/Info


-or-


 

Live Flight TrackerFlight Track Log ✈ EJA922 ✈ 25-Jul-2013 ✈ KSAF - KSJC

Flight Track Log - Related Links

Times and Time Zones

All times are in EDT time to prevent confusion due to time zone crossing. See the EJA922 flight status page for this flight to view local times or setup timezone preferences in your user account.

Time Position Orientation Groundspeed Altitude Reporting Facility
EDT Latitude Longitude Course Direction KTS MPH feet Rate Location/Type
03:01PM 35.5964 -106.1144 270° West 189 217 7,600  Level Albuquerque Center
03:02PM 35.5908 -106.1953 265° West 234 269 10,200 2,400 Climbing Albuquerque Center
03:03PM 35.5867 -106.3011 267° West 290 334 12,600 2,100 Climbing Albuquerque Center
03:04PM 35.5839 -106.4156 268° West 331 381 14,600 2,040 Climbing Albuquerque Center
03:05PM 35.5364 -107.5603 265° West  Level FlightAware Approximate
03:05PM 35.5792 -106.5647 268° West 366 421 16,900  Level Albuquerque Center
03:06PM 35.5334 -107.7090 270° West  Level FlightAware Approximate
03:06PM 35.5744 -106.6922 267° West 374 430 18,500  Level Albuquerque Center
03:07PM 35.5736 -106.8308 270° West 379 436 20,500 1,860 Climbing Albuquerque Center
03:08PM 35.6219 -106.9458 297° West 378 435 22,400 1,740 Climbing Albuquerque Center
03:09PM 35.6692 -107.0639 296° West 379 436 24,200 1,740 Climbing Albuquerque Center
03:10PM 35.7169 -107.1728 298° West 379 436 26,000 1,800 Climbing Albuquerque Center
03:11PM 35.7478 -107.3144 285° West 385 443 28,000 1,740 Climbing Albuquerque Center
03:12PM 35.7653 -107.4367 280° West 382 440 29,600 1,740 Climbing Albuquerque Center
03:13PM 35.7853 -107.5836 280° West 387 445 31,600 1,680 Climbing Albuquerque Center
03:14PM 35.8358 -107.6953 299° West 391 450 33,100 1,380 Climbing Albuquerque Center
03:15PM 35.9272 -107.8056 316° Northwest 403 464 34,500 1,200 Climbing Albuquerque Center
03:16PM 36.0089 -107.9003 317° Northwest 416 479 35,600 1,200 Climbing Albuquerque Center
03:17PM 36.1033 -108.0192 315° West 429 494 37,000 1,200 Climbing Albuquerque Center
03:18PM 36.1803 -108.1269 312° West 435 501 38,100 1,140 Climbing Albuquerque Center
03:19PM 36.2414 -108.2214 309° West 441 507 39,000 960 Climbing Denver Center
03:20PM 36.2994 -108.3517 299° West 448 516 39,900 480 Climbing Denver Center
03:21PM 36.3583 -108.5117 295° West 458 527 40,000  Climbing Denver Center
03:22PM 36.4119 -108.6533 295° West 472 543 40,000  Level Denver Center
03:23PM 36.4725 -108.8211 294° West 478 550 40,000  Level Denver Center
03:24PM 36.5244 -108.9639 294° West 477 549 40,000  Level Denver Center
03:25PM 36.5864 -109.1308 295° West 479 551 40,000  Level Denver Center
03:26PM 36.6386 -109.2756 294° West 480 552 40,000  Level Denver Center
03:27PM 36.6997 -109.4444 294° West 481 554 40,000  Level Denver Center
03:28PM 36.7525 -109.5889 295° West 480 552 40,000  Level Denver Center
03:29PM 36.8131 -109.7586 294° West 482 555 40,000  Level Denver Center
03:31PM 36.8642 -109.9036 294° West 478 550 40,000  Level Denver Center
03:32PM 36.9256 -110.0736 294° West 481 554 40,000  Level Denver Center
03:33PM 36.9761 -110.2172 294° West 477 549 40,000  Level Denver Center
03:34PM 37.0489 -110.3561 303° West 480 552 40,000  Level Denver Center
03:35PM 37.1292 -110.4911 307° West 483 556 40,000  Level Denver Center
03:36PM 37.2261 -110.6517 307° West 483 556 40,000  Level Denver Center
03:37PM 37.3083 -110.7844 308° West 483 556 40,000  Level Denver Center
03:38PM 37.3742 -110.8892 308° West 479 551 40,000  Level Denver Center
03:39PM 37.4747 -111.0467 309° West 481 554 40,000  Level Denver Center
03:40PM 37.5633 -111.1722 312° West 482 555 40,000  Level Denver Center
03:41PM 37.6369 -111.3100 304° West 476 548 40,000  Level Denver Center
03:42PM 37.6842 -111.4972 288° West 469 540 40,000  Level Denver Center
03:43PM 37.7161 -111.6528 285° West 462 532 40,000  Level Denver Center
03:44PM 37.7478 -111.8108 284° West 465 535 40,000  Level Denver Center
03:45PM 37.7817 -111.9675 285° West 464 534 40,000  Level Denver Center
03:46PM 37.8131 -112.1269 284° West 469 540 40,000  Level Denver Center
03:47PM 37.8581 -112.3481 285° West 469 540 40,000  Level Salt Lake Center
03:48PM 37.8903 -112.5053 285° West 466 536 40,000  Level Salt Lake Center
03:49PM 37.9289 -112.6950 285° West 469 540 40,000  Level Salt Lake Center
03:50PM 37.9600 -112.8531 284° West 469 540 40,000 240 Level Salt Lake Center
03:52PM 37.9908 -113.0128 284° West 470 541 40,500 720 Climbing Salt Lake Center
03:53PM 38.0211 -113.1669 284° West 461 531 41,600 840 Climbing Salt Lake Center
03:54PM 38.0497 -113.3172 284° West 449 517 42,300 600 Climbing Salt Lake Center
03:55PM 38.0839 -113.4981 284° West 443 510 42,900 300 Climbing Salt Lake Center
03:56PM 38.1131 -113.6506 284° West 445 512 43,000  Climbing Salt Lake Center
03:57PM 38.1425 -113.8044 284° West 449 517 43,000  Level Salt Lake Center
03:58PM 38.1711 -113.9581 283° West 449 517 43,000  Level Salt Lake Center
03:59PM 38.1989 -114.1111 283° West 447 514 43,000  Level Salt Lake Center
04:00PM 38.2325 -114.2975 283° West 450 518 43,000  Level Salt Lake Center
04:01PM 38.2464 -114.4528 277° West 446 513 43,000  Level Salt Lake Center
04:02PM 38.2353 -114.6086 265° West 446 513 43,000  Level Salt Lake Center
04:03PM 38.2231 -114.7653 264° West 447 514 43,000  Level Salt Lake Center
04:04PM 38.2125 -114.9206 265° West 444 511 43,000  Level Salt Lake Center
04:05PM 38.1986 -115.0756 264° West 444 511 43,000  Level Salt Lake Center
04:06PM 38.1839 -115.2633 264° West 446 513 43,000  Level Salt Lake Center
04:07PM 38.1714 -115.4233 264° West 444 511 43,000  Level Salt Lake Center
04:08PM 38.1592 -115.5783 264° West 442 509 43,000  Level Salt Lake Center
04:09PM 38.1456 -115.7344 264° West 443 510 43,000  Level Salt Lake Center
04:10PM 38.1322 -115.8903 264° West 444 511 43,000  Level Salt Lake Center
04:11PM 38.1192 -116.0456 264° West 444 511 43,000  Level Salt Lake Center
04:12PM 38.1056 -116.2006 264° West 443 510 43,000  Level Salt Lake Center
04:13PM 38.0903 -116.3875 264° West 443 510 43,000  Level Salt Lake Center
04:14PM 38.0758 -116.5436 263° West 446 513 43,000  Level Salt Lake Center
04:15PM 38.0614 -116.7014 263° West 447 514 43,000  Level Salt Lake Center
04:16PM 38.0467 -116.8597 263° West 450 518 43,000  Level Salt Lake Center
04:17PM 38.0300 -117.0194 263° West 452 520 43,000  Level Salt Lake Center
04:18PM 37.9811 -117.1722 248° West 457 526 43,000  Level Salt Lake Center
04:19PM 37.9275 -117.3214 246° West 457 526 43,000 -240 Level Salt Lake Center
04:21PM 37.8653 -117.4972 246° West 454 522 42,600 -900 Descending Oakland Center
04:22PM 37.8111 -117.6444 245° Southwest 459 528 41,100 -1,500 Descending Oakland Center
04:23PM 37.7581 -117.7925 246° West 461 531 39,600 -1,500 Descending Oakland Center
04:24PM 37.7036 -117.9400 245° Southwest 462 532 38,100 -1,560 Descending Oakland Center
04:25PM 37.6508 -118.0833 245° Southwest 455 524 36,500 -1,560 Descending Oakland Center
04:26PM 37.6028 -118.2267 247° West 446 513 35,000 -1,560 Descending Oakland Center
04:27PM 37.5725 -118.3833 256° West 452 520 33,400 -1,620 Descending Oakland Center
04:28PM 37.5408 -118.5425 256° West 465 535 31,700 -1,680 Descending Oakland Center
04:29PM 37.5053 -118.7261 256° West 446 513 30,000 -840 Descending Oakland Center
04:30PM 37.4803 -118.8433 255° West 426 490 30,000  Level Oakland Center
04:31PM 37.4450 -119.0183 256° West 430 495 30,000  Level Oakland Center
04:32PM 37.4144 -119.1675 256° West 440 506 30,000 -420 Level Oakland Center
04:33PM 37.3833 -119.3206 256° West 451 519 29,200 -1,200 Descending Oakland Center
04:34PM 37.3483 -119.4903 256° West 479 551 27,600 -1,500 Descending Oakland Center
04:35PM 37.3164 -119.6475 256° West 487 560 26,200 -1,620 Descending Oakland Center
04:36PM 37.2836 -119.8208 257° West 488 562 24,300 -1,920 Descending Oakland Center
04:37PM 37.2614 -119.9739 260° West 451 519 22,300 -1,980 Descending Oakland Center
04:38PM 37.2408 -120.1175 260° West 425 489 20,300 -1,980 Descending Oakland Center
04:39PM 37.2197 -120.2606 260° West 421 484 18,300 -2,100 Descending Oakland Center
04:40PM 37.1889 -120.4428 258° West 439 505 16,100 -1,140 Descending Oakland Center
04:41PM 37.1675 -120.5833 259° West 416 479 16,000 -840 Descending Oakland Center
04:42PM 37.1475 -120.7192 260° West 404 465 14,500 -1,500 Descending Oakland Center
04:43PM 37.1267 -120.8456 258° West 375 432 13,000 -1,560 Descending Oakland Center
04:44PM 37.1128 -120.9758 262° West 374 430 11,400 -1,500 Descending Oakland Center
04:45PM 37.0964 -121.1189 262° West 403 464 10,000 -720 Descending Oakland Center
04:46PM 37.0808 -121.2581 262° West 402 463 10,000  Level Oakland Center
04:47PM 37.0908 -121.3803 276° West 370 426 10,000 -780 Level Oakland Center
04:48PM 37.1122 -121.4789 285° West 308 354 8,500 -1,440 Descending Oakland Center
04:49PM 37.1372 -121.5925 285° West 290 334 7,100 -1,620 Descending Oakland Center
04:50PM 37.1569 -121.6814 286° West 275 316 5,200 -1,560 Descending Oakland Center
04:51PM 37.1944 -121.7525 304° West 259 298 4,000 -1,260 Descending Oakland Center
04:52PM 37.2464 -121.8061 321° Northwest 249 287 2,700 -1,080 Descending Oakland Center
04:53PM 37.2842 -121.8461 320° Northwest 204 235 1,900 -840 Descending Oakland Center
04:54PM 37.3144 -121.8781 320° Northwest 167 192 1,100 -780 Descending Oakland Center
04:55PM 37.3419 -121.9100 317° Northwest 148 170 400 -720 Descending Oakland Center
04:57PM 37.3500 -121.9167 North  Level FlightAware Approximate
05:04PM 37.3627 -121.9291 North  Level Estimated